createdAt,value
2022-11-18T00:00:05.706Z,0.00
2022-11-18T00:01:05.691Z,0.00
2022-11-18T00:02:05.749Z,0.00
2022-11-18T00:03:05.721Z,0.00
2022-11-18T00:04:05.691Z,0.00
2022-11-18T00:05:05.688Z,0.00
2022-11-18T00:06:05.765Z,0.00
2022-11-18T00:07:05.712Z,0.00
2022-11-18T00:08:05.714Z,0.00
2022-11-18T00:09:05.667Z,0.00
2022-11-18T00:10:05.692Z,0.00
2022-11-18T00:11:05.649Z,0.00
2022-11-18T00:12:05.685Z,0.00
2022-11-18T00:13:05.642Z,0.00
2022-11-18T00:14:05.653Z,0.00
2022-11-18T00:15:05.624Z,0.00
2022-11-18T00:16:05.661Z,0.00
2022-11-18T00:17:05.630Z,0.00
2022-11-18T00:18:05.604Z,0.00
2022-11-18T00:19:06.627Z,0.00
2022-11-18T00:20:05.599Z,0.00
2022-11-18T00:21:05.594Z,0.00
2022-11-18T00:22:05.614Z,0.00
2022-11-18T00:23:05.595Z,0.00
2022-11-18T00:24:05.627Z,0.00
2022-11-18T00:25:05.592Z,0.00
2022-11-18T00:26:05.606Z,0.00
2022-11-18T00:27:05.685Z,0.00
2022-11-18T00:28:05.563Z,0.00
2022-11-18T00:29:05.559Z,0.00
2022-11-18T00:30:05.599Z,0.00
2022-11-18T00:31:05.567Z,0.00
2022-11-18T00:32:05.558Z,0.00
2022-11-18T00:33:05.566Z,0.00
2022-11-18T00:34:05.541Z,0.00
2022-11-18T00:35:05.599Z,0.00
2022-11-18T00:36:05.559Z,0.00
2022-11-18T00:37:05.575Z,0.00
2022-11-18T00:38:05.554Z,0.00
2022-11-18T00:39:05.532Z,0.00
2022-11-18T00:40:05.529Z,0.00
2022-11-18T00:41:05.547Z,0.00
2022-11-18T00:42:05.588Z,0.00
2022-11-18T00:43:05.517Z,0.00
2022-11-18T00:44:09.421Z,0.00
2022-11-18T00:45:06.496Z,0.00
2022-11-18T00:46:05.534Z,0.00
2022-11-18T00:47:05.489Z,0.00
2022-11-18T00:48:05.494Z,0.00
2022-11-18T00:49:05.547Z,0.00
2022-11-18T00:50:05.479Z,0.00
2022-11-18T00:51:05.461Z,0.00
2022-11-18T00:52:05.458Z,0.00
2022-11-18T00:53:05.466Z,0.00
2022-11-18T00:54:05.465Z,0.00
2022-11-18T00:55:05.440Z,0.00
2022-11-18T00:56:05.448Z,0.00
2022-11-18T00:57:05.447Z,0.00
2022-11-18T00:58:05.453Z,0.00
2022-11-18T00:59:05.432Z,0.00
2022-11-18T01:00:05.431Z,0.00
2022-11-18T01:01:05.479Z,0.00
2022-11-18T01:02:05.424Z,0.00
2022-11-18T01:03:05.571Z,0.00
2022-11-18T01:04:05.427Z,0.00
2022-11-18T01:05:05.405Z,0.00
2022-11-18T01:06:05.394Z,0.00
2022-11-18T01:07:05.431Z,0.00
2022-11-18T01:08:05.378Z,0.00
2022-11-18T01:09:05.406Z,0.00
2022-11-18T01:10:05.386Z,0.00
2022-11-18T01:11:05.373Z,0.00
2022-11-18T01:12:05.351Z,0.00
2022-11-18T01:13:05.348Z,0.00
2022-11-18T01:14:05.389Z,0.00
2022-11-18T01:15:05.424Z,0.00
2022-11-18T01:16:05.358Z,0.00
2022-11-18T01:17:05.334Z,0.00
2022-11-18T01:18:05.324Z,0.00
2022-11-18T01:19:05.337Z,0.00
2022-11-18T01:20:05.438Z,0.00
2022-11-18T01:21:05.337Z,0.00
2022-11-18T01:22:05.386Z,0.00
2022-11-18T01:23:05.309Z,0.00
2022-11-18T01:24:06.321Z,0.00
2022-11-18T01:25:05.344Z,0.00
2022-11-18T01:26:05.292Z,0.00
2022-11-18T01:27:05.296Z,0.00
2022-11-18T01:28:05.314Z,0.00
2022-11-18T01:29:05.294Z,0.00
2022-11-18T01:30:05.319Z,0.00
2022-11-18T01:31:05.319Z,0.00
2022-11-18T01:33:07.285Z,0.00
2022-11-18T01:34:05.279Z,0.00
2022-11-18T01:35:05.265Z,0.00
2022-11-18T01:36:05.331Z,0.00
2022-11-18T01:37:05.266Z,0.00
2022-11-18T01:38:05.243Z,0.00
2022-11-18T01:39:05.244Z,0.00
2022-11-18T01:40:05.242Z,0.00
2022-11-18T01:41:05.262Z,0.00
2022-11-18T01:42:05.262Z,0.00
2022-11-18T01:43:05.211Z,0.00
2022-11-18T01:44:05.212Z,0.00
2022-11-18T01:45:05.395Z,0.00
2022-11-18T01:46:05.223Z,0.00
2022-11-18T01:47:05.222Z,0.00
2022-11-18T01:48:05.215Z,0.00
2022-11-18T01:49:05.229Z,0.00
2022-11-18T01:50:05.187Z,0.00
2022-11-18T01:51:05.186Z,0.00
2022-11-18T01:52:05.218Z,0.00
2022-11-18T01:53:05.214Z,0.00
2022-11-18T01:54:05.168Z,0.00
2022-11-18T01:55:05.226Z,0.00
2022-11-18T01:56:05.153Z,0.00
2022-11-18T01:57:05.145Z,0.00
2022-11-18T01:58:05.186Z,0.00
2022-11-18T01:59:05.170Z,0.00
2022-11-18T02:00:05.239Z,0.00
2022-11-18T02:01:05.185Z,0.00
2022-11-18T02:02:05.207Z,0.00
2022-11-18T02:03:05.151Z,0.00
2022-11-18T02:04:05.120Z,0.00
2022-11-18T02:05:05.111Z,0.00
2022-11-18T02:06:05.119Z,0.00
2022-11-18T02:07:05.140Z,0.00
2022-11-18T02:08:05.136Z,0.00
2022-11-18T02:09:05.105Z,0.00
2022-11-18T02:10:05.125Z,0.00
2022-11-18T02:11:05.101Z,0.00
2022-11-18T02:12:06.187Z,0.00
2022-11-18T02:13:05.096Z,0.00
2022-11-18T02:14:05.116Z,0.00
2022-11-18T02:15:05.089Z,0.00
2022-11-18T02:16:05.075Z,0.00
2022-11-18T02:17:05.074Z,0.00
2022-11-18T02:18:05.060Z,0.00
2022-11-18T02:19:05.092Z,0.00
2022-11-18T02:20:05.059Z,0.00
2022-11-18T02:21:05.053Z,0.00
2022-11-18T02:22:05.099Z,0.00
2022-11-18T02:23:05.075Z,0.00
2022-11-18T02:24:05.076Z,0.00
2022-11-18T02:25:05.163Z,0.00
2022-11-18T02:26:05.059Z,0.00
2022-11-18T02:27:05.026Z,0.00
2022-11-18T02:28:05.016Z,0.00
2022-11-18T02:29:05.013Z,0.00
2022-11-18T02:30:05.018Z,0.00
2022-11-18T02:31:05.021Z,0.00
2022-11-18T02:32:05.088Z,0.00
2022-11-18T02:33:04.995Z,0.00
2022-11-18T02:34:04.982Z,0.00
2022-11-18T02:35:05.051Z,0.00
2022-11-18T02:36:05.012Z,0.00
2022-11-18T02:37:04.972Z,0.00
2022-11-18T02:38:04.988Z,0.00
2022-11-18T02:39:04.964Z,0.00
2022-11-18T02:40:04.956Z,0.00
2022-11-18T02:41:04.978Z,0.00
2022-11-18T02:42:04.975Z,0.00
2022-11-18T02:43:04.945Z,0.00
2022-11-18T02:44:04.938Z,0.00
2022-11-18T02:45:04.938Z,0.00
2022-11-18T02:46:04.944Z,0.00
2022-11-18T02:47:04.938Z,0.00
2022-11-18T02:48:05.945Z,0.00
2022-11-18T02:49:04.917Z,0.00
2022-11-18T02:50:04.972Z,0.00
2022-11-18T02:51:04.914Z,0.00
2022-11-18T02:52:04.913Z,0.00
2022-11-18T02:53:04.926Z,0.00
2022-11-18T02:54:04.904Z,0.00
2022-11-18T02:55:04.916Z,0.00
2022-11-18T02:56:04.879Z,0.00
2022-11-18T02:57:04.875Z,0.00
2022-11-18T02:58:04.870Z,0.00
2022-11-18T02:59:04.884Z,0.00
2022-11-18T03:00:04.873Z,0.00
2022-11-18T03:01:04.946Z,0.00
2022-11-18T03:02:04.866Z,0.00
2022-11-18T03:03:04.856Z,0.00
2022-11-18T03:04:04.892Z,0.00
2022-11-18T03:05:04.944Z,0.00
2022-11-18T03:06:04.851Z,0.00
2022-11-18T03:07:04.875Z,0.00
2022-11-18T03:08:05.853Z,0.00
2022-11-18T03:09:04.863Z,0.00
2022-11-18T03:10:04.829Z,0.00
2022-11-18T03:11:04.818Z,0.00
2022-11-18T03:12:04.820Z,0.00
2022-11-18T03:13:04.822Z,0.00
2022-11-18T03:14:04.841Z,0.00
2022-11-18T03:15:04.840Z,0.00
2022-11-18T03:16:04.820Z,0.00
2022-11-18T03:17:04.905Z,0.00
2022-11-18T03:18:04.806Z,0.00
2022-11-18T03:19:04.782Z,0.00
2022-11-18T03:20:04.776Z,0.00
2022-11-18T03:21:04.772Z,0.00
2022-11-18T03:22:04.776Z,0.00
2022-11-18T03:23:05.843Z,0.00
2022-11-18T03:24:04.781Z,0.00
2022-11-18T03:25:04.881Z,0.00
2022-11-18T03:26:04.762Z,0.00
2022-11-18T03:27:04.787Z,0.00
2022-11-18T03:28:04.799Z,0.00
2022-11-18T03:29:04.755Z,0.00
2022-11-18T03:30:04.737Z,0.00
2022-11-18T03:31:04.754Z,0.00
2022-11-18T03:32:04.728Z,0.00
2022-11-18T03:33:04.690Z,0.00
2022-11-18T03:34:04.731Z,0.00
2022-11-18T03:35:04.737Z,0.00
2022-11-18T03:36:04.747Z,0.00
2022-11-18T03:37:10.047Z,0.00
2022-11-18T03:38:06.689Z,0.00
2022-11-18T03:39:04.692Z,0.00
2022-11-18T03:40:04.679Z,0.00
2022-11-18T03:41:04.693Z,0.00
2022-11-18T03:42:04.697Z,0.00
2022-11-18T03:43:04.690Z,0.00
2022-11-18T03:44:04.657Z,0.00
2022-11-18T03:45:04.748Z,0.00
2022-11-18T03:46:04.661Z,0.00
2022-11-18T03:47:04.670Z,0.00
2022-11-18T03:48:04.664Z,0.00
2022-11-18T03:49:04.643Z,0.00
2022-11-18T03:50:04.626Z,0.00
2022-11-18T03:51:04.640Z,0.00
2022-11-18T03:52:04.624Z,0.00
2022-11-18T03:53:04.793Z,0.00
2022-11-18T03:54:04.618Z,0.00
2022-11-18T03:55:04.631Z,0.00
2022-11-18T03:56:04.621Z,0.00
2022-11-18T03:57:04.600Z,0.00
2022-11-18T03:58:04.601Z,0.00
2022-11-18T03:59:04.649Z,0.00
2022-11-18T04:00:04.633Z,0.00
2022-11-18T04:01:04.589Z,0.00
2022-11-18T04:02:04.734Z,0.00
2022-11-18T04:03:04.585Z,0.00
2022-11-18T04:04:04.571Z,0.00
2022-11-18T04:05:04.595Z,0.00
2022-11-18T04:06:04.578Z,0.00
2022-11-18T04:07:04.627Z,0.00
2022-11-18T04:08:04.587Z,0.00
2022-11-18T04:09:04.571Z,0.00
2022-11-18T04:10:05.579Z,0.00
2022-11-18T04:11:04.609Z,0.00
2022-11-18T04:12:04.572Z,0.00
2022-11-18T04:13:06.398Z,0.00
2022-11-18T04:14:05.543Z,0.00
2022-11-18T04:15:04.533Z,0.00
2022-11-18T04:16:04.640Z,0.00
2022-11-18T04:17:04.544Z,0.00
2022-11-18T04:18:04.504Z,0.00
2022-11-18T04:19:17.770Z,0.00
2022-11-18T04:20:06.518Z,0.00
2022-11-18T04:21:04.516Z,0.00
2022-11-18T04:22:04.525Z,0.00
2022-11-18T04:23:04.489Z,0.00
2022-11-18T04:24:04.482Z,0.00
2022-11-18T04:25:04.482Z,0.00
2022-11-18T04:26:04.506Z,0.00
2022-11-18T04:27:04.481Z,0.00
2022-11-18T04:28:04.512Z,0.00
2022-11-18T04:29:04.514Z,0.00
2022-11-18T04:30:04.535Z,0.00
2022-11-18T04:31:04.459Z,0.00
2022-11-18T04:32:04.442Z,0.00
2022-11-18T04:33:04.439Z,0.00
2022-11-18T04:34:04.490Z,0.00
2022-11-18T04:35:04.484Z,0.00
2022-11-18T04:36:04.466Z,0.00
2022-11-18T04:37:04.463Z,0.00
2022-11-18T04:38:05.125Z,0.00
2022-11-18T04:39:05.466Z,0.00
2022-11-18T04:40:04.462Z,0.00
2022-11-18T04:41:04.419Z,0.00
2022-11-18T04:42:04.415Z,0.00
2022-11-18T04:43:04.477Z,0.00
2022-11-18T04:44:04.434Z,0.00
2022-11-18T04:45:04.426Z,0.00
2022-11-18T04:46:04.409Z,0.00
2022-11-18T04:47:04.405Z,0.00
2022-11-18T04:48:04.380Z,0.00
2022-11-18T04:49:04.378Z,0.00
2022-11-18T04:50:04.393Z,0.00
2022-11-18T04:51:04.376Z,0.00
2022-11-18T04:52:04.356Z,0.00
2022-11-18T04:53:04.353Z,0.00
2022-11-18T04:54:04.352Z,0.00
2022-11-18T04:55:04.356Z,0.00
2022-11-18T04:56:04.330Z,0.00
2022-11-18T04:57:04.348Z,0.00
2022-11-18T04:58:04.319Z,0.00
2022-11-18T04:59:04.318Z,0.00
2022-11-18T05:00:04.348Z,0.00
2022-11-18T05:01:04.352Z,0.00
2022-11-18T05:02:04.311Z,0.00
2022-11-18T05:03:04.310Z,0.00
2022-11-18T05:04:04.349Z,0.00
2022-11-18T05:05:04.326Z,0.00
2022-11-18T05:06:04.284Z,0.00
2022-11-18T05:07:04.388Z,0.00
2022-11-18T05:08:04.330Z,0.00
2022-11-18T05:09:04.284Z,0.00
2022-11-18T05:10:04.270Z,0.00
2022-11-18T05:11:04.265Z,0.00
2022-11-18T05:12:04.335Z,0.00
2022-11-18T05:13:04.274Z,0.00
2022-11-18T05:14:04.276Z,0.00
2022-11-18T05:15:04.286Z,0.00
2022-11-18T05:16:04.274Z,0.00
2022-11-18T05:17:04.242Z,0.00
2022-11-18T05:18:04.243Z,0.00
2022-11-18T05:19:04.223Z,0.00
2022-11-18T05:20:04.240Z,0.00
2022-11-18T05:21:04.224Z,0.00
2022-11-18T05:22:04.198Z,0.00
2022-11-18T05:23:04.227Z,0.00
2022-11-18T05:24:04.205Z,0.00
2022-11-18T05:25:04.269Z,0.00
2022-11-18T05:26:04.182Z,0.00
2022-11-18T05:27:04.197Z,0.00
2022-11-18T05:28:04.247Z,0.00
2022-11-18T05:29:04.185Z,0.00
2022-11-18T05:30:04.245Z,0.00
2022-11-18T05:31:04.160Z,0.00
2022-11-18T05:32:04.183Z,0.00
2022-11-18T05:33:04.367Z,0.00
2022-11-18T05:34:04.164Z,0.00
2022-11-18T05:35:04.193Z,0.00
2022-11-18T05:36:04.194Z,0.00
2022-11-18T05:37:04.139Z,0.00
2022-11-18T05:38:04.146Z,0.00
2022-11-18T05:39:05.147Z,0.00
2022-11-18T05:40:04.156Z,0.00
2022-11-18T05:41:04.149Z,0.00
2022-11-18T05:42:04.114Z,0.00
2022-11-18T05:43:04.115Z,0.00
2022-11-18T05:44:04.100Z,0.00
2022-11-18T05:45:04.149Z,0.00
2022-11-18T05:46:04.115Z,0.00
2022-11-18T05:47:04.147Z,0.00
2022-11-18T05:48:04.103Z,0.00
2022-11-18T05:49:04.111Z,0.00
2022-11-18T05:50:04.108Z,0.00
2022-11-18T05:51:04.103Z,0.00
2022-11-18T05:52:04.078Z,0.00
2022-11-18T05:53:04.075Z,0.00
2022-11-18T05:54:04.080Z,0.00
2022-11-18T05:55:04.068Z,0.00
2022-11-18T05:56:04.067Z,0.00
2022-11-18T05:57:04.024Z,0.00
2022-11-18T05:58:04.031Z,0.00
2022-11-18T05:59:04.032Z,0.00
2022-11-18T06:00:04.033Z,0.00
2022-11-18T06:01:04.062Z,0.00
2022-11-18T06:02:04.036Z,0.00
2022-11-18T06:03:04.123Z,0.00
2022-11-18T06:04:04.007Z,0.00
2022-11-18T06:05:04.036Z,0.00
2022-11-18T06:06:04.025Z,0.00
2022-11-18T06:07:04.053Z,0.00
2022-11-18T06:08:04.017Z,0.00
2022-11-18T06:09:03.998Z,0.00
2022-11-18T06:10:06.018Z,0.00
2022-11-18T06:11:04.984Z,0.00
2022-11-18T06:12:03.977Z,0.00
2022-11-18T06:13:04.010Z,0.00
2022-11-18T06:14:03.979Z,0.00
2022-11-18T06:15:04.002Z,0.00
2022-11-18T06:16:03.955Z,0.00
2022-11-18T06:17:03.958Z,0.00
2022-11-18T06:18:03.968Z,0.00
2022-11-18T06:19:03.951Z,0.00
2022-11-18T06:20:03.962Z,0.00
2022-11-18T06:21:03.927Z,0.00
2022-11-18T06:22:03.920Z,0.00
2022-11-18T06:23:03.924Z,0.00
2022-11-18T06:24:03.938Z,0.00
2022-11-18T06:25:04.026Z,0.00
2022-11-18T06:26:03.934Z,0.00
2022-11-18T06:27:03.908Z,0.00
2022-11-18T06:28:03.924Z,0.00
2022-11-18T06:29:03.887Z,0.00
2022-11-18T06:30:03.893Z,0.00
2022-11-18T06:31:03.890Z,0.00
2022-11-18T06:32:03.886Z,0.00
2022-11-18T06:33:03.854Z,0.00
2022-11-18T06:34:04.034Z,0.00
2022-11-18T06:35:03.902Z,0.00
2022-11-18T06:36:03.842Z,0.00
2022-11-18T06:37:03.834Z,0.00
2022-11-18T06:38:04.887Z,0.00
2022-11-18T06:39:03.866Z,0.00
2022-11-18T06:40:03.823Z,0.00
2022-11-18T06:41:03.835Z,0.00
2022-11-18T06:42:03.914Z,0.00
2022-11-18T06:43:03.840Z,0.00
2022-11-18T06:44:03.822Z,0.00
2022-11-18T06:45:03.851Z,0.00
2022-11-18T06:46:08.847Z,0.00
2022-11-18T06:47:05.798Z,0.00
2022-11-18T06:48:03.823Z,0.00
2022-11-18T06:49:03.824Z,0.00
2022-11-18T06:50:03.825Z,0.00
2022-11-18T06:51:03.790Z,0.00
2022-11-18T06:52:03.780Z,0.00
2022-11-18T06:53:03.805Z,0.00
2022-11-18T06:54:09.216Z,0.00
2022-11-18T06:55:05.845Z,0.00
2022-11-18T06:56:03.762Z,0.00
2022-11-18T06:57:03.760Z,0.00
2022-11-18T06:58:03.752Z,0.00
2022-11-18T06:59:03.767Z,0.00
2022-11-18T07:00:03.780Z,0.00
2022-11-18T07:01:03.847Z,0.00
2022-11-18T07:02:03.724Z,0.00
2022-11-18T07:03:03.824Z,0.00
2022-11-18T07:04:03.796Z,0.00
2022-11-18T07:05:03.722Z,0.00
2022-11-18T07:06:03.766Z,0.00
2022-11-18T07:07:03.810Z,0.00
2022-11-18T07:08:03.759Z,0.00
2022-11-18T07:09:03.732Z,0.00
2022-11-18T07:10:03.763Z,0.00
2022-11-18T07:11:03.679Z,5.62
2022-11-18T07:12:03.687Z,5.62
2022-11-18T07:13:03.672Z,5.62
2022-11-18T07:14:03.690Z,5.62
2022-11-18T07:15:03.720Z,5.62
2022-11-18T07:16:03.672Z,5.62
2022-11-18T07:17:03.650Z,5.62
2022-11-18T07:18:03.678Z,5.62
2022-11-18T07:19:03.714Z,5.62
2022-11-18T07:20:03.682Z,5.62
2022-11-18T07:21:03.657Z,5.62
2022-11-18T07:22:03.637Z,5.62
2022-11-18T07:23:03.701Z,5.62
2022-11-18T07:24:03.708Z,5.62
2022-11-18T07:25:03.649Z,11.25
2022-11-18T07:26:04.643Z,11.25
2022-11-18T07:27:03.615Z,11.25
2022-11-18T07:28:03.624Z,11.25
2022-11-18T07:29:03.597Z,11.25
2022-11-18T07:30:03.603Z,11.25
2022-11-18T07:31:03.606Z,11.25
2022-11-18T07:32:03.585Z,11.25
2022-11-18T07:33:03.596Z,11.25
2022-11-18T07:34:03.600Z,11.25
2022-11-18T07:35:03.607Z,11.25
2022-11-18T07:36:03.633Z,11.25
2022-11-18T07:37:03.673Z,11.25
2022-11-18T07:38:03.567Z,11.25
2022-11-18T07:39:03.556Z,16.88
2022-11-18T07:40:03.558Z,16.88
2022-11-18T07:41:03.574Z,16.88
2022-11-18T07:42:03.574Z,16.88
2022-11-18T07:43:03.565Z,16.88
2022-11-18T07:44:03.541Z,16.88
2022-11-18T07:45:03.547Z,16.88
2022-11-18T07:46:03.538Z,16.88
2022-11-18T07:47:03.564Z,16.88
2022-11-18T07:48:03.505Z,11.25
2022-11-18T07:49:03.553Z,11.25
2022-11-18T07:50:03.532Z,11.25
2022-11-18T07:51:03.544Z,11.25
2022-11-18T07:52:03.494Z,11.25
2022-11-18T07:53:03.551Z,11.25
2022-11-18T07:54:03.521Z,11.25
2022-11-18T07:55:03.504Z,11.25
2022-11-18T07:56:03.493Z,11.25
2022-11-18T07:57:03.568Z,11.25
2022-11-18T07:58:03.503Z,11.25
2022-11-18T07:59:03.567Z,11.25
2022-11-18T08:00:03.552Z,11.25
2022-11-18T08:01:03.488Z,11.25
2022-11-18T08:02:03.551Z,16.88
2022-11-18T08:03:03.491Z,16.88
2022-11-18T08:04:03.468Z,16.88
2022-11-18T08:05:03.493Z,16.88
2022-11-18T08:06:03.487Z,16.88
2022-11-18T08:07:03.480Z,22.50
2022-11-18T08:08:03.453Z,22.50
2022-11-18T08:09:03.436Z,22.50
2022-11-18T08:10:03.455Z,22.50
2022-11-18T08:11:03.441Z,22.50
2022-11-18T08:12:03.413Z,22.50
2022-11-18T08:13:03.394Z,22.50
2022-11-18T08:14:03.390Z,22.50
2022-11-18T08:15:03.408Z,22.50
2022-11-18T08:16:03.421Z,22.50
2022-11-18T08:17:03.434Z,22.50
2022-11-18T08:18:03.388Z,22.50
2022-11-18T08:19:03.399Z,22.50
2022-11-18T08:20:03.385Z,22.50
2022-11-18T08:21:03.391Z,22.50
2022-11-18T08:22:03.356Z,22.50
2022-11-18T08:23:03.370Z,22.50
2022-11-18T08:24:03.388Z,22.50
2022-11-18T08:25:03.342Z,22.50
2022-11-18T08:26:04.383Z,22.50
2022-11-18T08:27:03.370Z,22.50
2022-11-18T08:28:03.350Z,22.50
2022-11-18T08:29:03.333Z,22.50
2022-11-18T08:30:03.329Z,22.50
2022-11-18T08:31:03.331Z,22.50
2022-11-18T08:32:03.335Z,22.50
2022-11-18T08:33:03.314Z,22.50
2022-11-18T08:34:03.345Z,22.50
2022-11-18T08:35:08.056Z,22.50
2022-11-18T08:36:05.290Z,22.50
2022-11-18T08:37:03.381Z,22.50
2022-11-18T08:38:03.287Z,22.50
2022-11-18T08:39:03.285Z,22.50
2022-11-18T08:40:03.271Z,22.50
2022-11-18T08:41:03.298Z,22.50
2022-11-18T08:42:03.369Z,22.50
2022-11-18T08:43:03.258Z,22.50
2022-11-18T08:44:03.258Z,22.50
2022-11-18T08:45:03.261Z,22.50
2022-11-18T08:46:03.290Z,22.50
2022-11-18T08:47:03.249Z,22.50
2022-11-18T08:48:03.218Z,22.50
2022-11-18T08:49:03.291Z,22.50
2022-11-18T08:50:03.328Z,22.50
2022-11-18T08:51:03.207Z,28.12
2022-11-18T08:52:03.235Z,28.12
2022-11-18T08:53:03.289Z,28.12
2022-11-18T08:54:03.274Z,28.12
2022-11-18T08:55:03.297Z,28.12
2022-11-18T08:56:03.240Z,33.75
2022-11-18T08:57:03.187Z,33.75
2022-11-18T08:58:03.199Z,33.75
2022-11-18T08:59:03.226Z,33.75
2022-11-18T09:00:03.168Z,33.75
2022-11-18T09:01:03.256Z,33.75
2022-11-18T09:02:03.254Z,33.75
2022-11-18T09:03:03.165Z,33.75
2022-11-18T09:04:03.165Z,33.75
2022-11-18T09:05:03.177Z,28.12
2022-11-18T09:06:03.166Z,28.12
2022-11-18T09:07:03.248Z,28.12
2022-11-18T09:08:03.129Z,28.12
2022-11-18T09:09:06.366Z,28.12
2022-11-18T09:10:04.160Z,28.12
2022-11-18T09:11:03.161Z,22.50
2022-11-18T09:12:03.105Z,22.50
2022-11-18T09:13:32.786Z,22.50
2022-11-18T09:15:14.175Z,22.50
2022-11-18T09:16:05.144Z,22.50
2022-11-18T09:17:03.117Z,22.50
2022-11-18T09:18:03.094Z,22.50
2022-11-18T09:20:05.093Z,22.50
2022-11-18T09:21:03.198Z,22.50
2022-11-18T09:22:03.097Z,28.12
2022-11-18T09:23:03.148Z,28.12
2022-11-18T09:24:03.047Z,28.12
2022-11-18T09:25:03.046Z,28.12
2022-11-18T09:26:03.084Z,22.50
2022-11-18T09:27:03.059Z,22.50
2022-11-18T09:28:03.066Z,22.50
2022-11-18T09:29:03.170Z,22.50
2022-11-18T09:30:03.035Z,22.50
2022-11-18T09:31:03.038Z,22.50
2022-11-18T09:32:03.027Z,22.50
2022-11-18T09:33:03.009Z,22.50
2022-11-18T09:34:03.007Z,22.50
2022-11-18T09:35:04.034Z,22.50
2022-11-18T09:36:03.026Z,28.12
2022-11-18T09:37:02.990Z,28.12
2022-11-18T09:38:02.996Z,28.12
2022-11-18T09:39:02.995Z,33.75
2022-11-18T09:40:03.006Z,33.75
2022-11-18T09:41:02.968Z,39.38
2022-11-18T09:42:03.063Z,39.38
2022-11-18T09:43:03.032Z,39.38
2022-11-18T09:44:02.952Z,39.38
2022-11-18T09:45:03.909Z,39.38
2022-11-18T09:46:02.948Z,39.38
2022-11-18T09:47:02.966Z,33.75
2022-11-18T09:48:02.936Z,33.75
2022-11-18T09:49:02.965Z,33.75
2022-11-18T09:50:15.192Z,28.12
2022-11-18T09:51:05.263Z,33.75
2022-11-18T09:52:02.920Z,33.75
2022-11-18T09:53:02.927Z,28.12
2022-11-18T09:54:02.902Z,28.12
2022-11-18T09:55:02.909Z,28.12
2022-11-18T09:56:03.209Z,22.50
2022-11-18T09:57:02.881Z,22.50
2022-11-18T09:58:02.888Z,22.50
2022-11-18T09:59:02.869Z,22.50
2022-11-18T10:00:02.998Z,22.50
2022-11-18T10:01:02.878Z,22.50
2022-11-18T10:02:02.932Z,22.50
2022-11-18T10:03:02.978Z,22.50
2022-11-18T10:04:02.910Z,22.50
2022-11-18T10:05:02.980Z,22.50
2022-11-18T10:06:02.986Z,22.50
2022-11-18T10:07:02.923Z,22.50
2022-11-18T10:08:02.886Z,22.50
2022-11-18T10:09:02.992Z,22.50
2022-11-18T10:10:03.049Z,22.50
2022-11-18T10:11:02.889Z,22.50
2022-11-18T10:12:02.926Z,16.88
2022-11-18T10:13:02.980Z,16.88
2022-11-18T10:14:02.862Z,16.88
2022-11-18T10:15:02.949Z,16.88
2022-11-18T10:16:02.797Z,16.88
2022-11-18T10:17:02.752Z,16.88
2022-11-18T10:18:02.747Z,16.88
2022-11-18T10:19:02.798Z,22.50
2022-11-18T10:20:02.894Z,22.50
2022-11-18T10:21:02.805Z,22.50
2022-11-18T10:22:02.752Z,22.50
2022-11-18T10:23:02.750Z,22.50
2022-11-18T10:24:02.731Z,28.12
2022-11-18T10:25:02.724Z,33.75
2022-11-18T10:26:02.723Z,39.38
2022-11-18T10:27:02.722Z,39.38
2022-11-18T10:28:02.727Z,39.38
2022-11-18T10:29:02.779Z,50.62
2022-11-18T10:30:02.691Z,50.62
2022-11-18T10:31:02.687Z,39.38
2022-11-18T10:32:04.322Z,39.38
2022-11-18T10:33:03.726Z,33.75
2022-11-18T10:34:02.694Z,33.75
2022-11-18T10:35:02.643Z,33.75
2022-11-18T10:36:02.653Z,33.75
2022-11-18T10:37:02.621Z,33.75
2022-11-18T10:38:09.948Z,33.75
2022-11-18T10:39:04.645Z,39.38
2022-11-18T10:40:02.621Z,39.38
2022-11-18T10:41:02.641Z,39.38
2022-11-18T10:42:02.646Z,39.38
2022-11-18T10:43:02.646Z,45.00
2022-11-18T10:44:04.034Z,39.38
2022-11-18T10:45:02.626Z,39.38
2022-11-18T10:46:02.609Z,39.38
2022-11-18T10:47:02.617Z,67.50
2022-11-18T10:48:02.625Z,50.62
2022-11-18T10:49:02.575Z,90.00
2022-11-18T10:50:02.613Z,84.38
2022-11-18T10:51:02.553Z,67.50
2022-11-18T10:52:02.554Z,56.25
2022-11-18T10:53:02.567Z,61.88
2022-11-18T10:54:02.560Z,61.88
2022-11-18T10:55:02.569Z,56.25
2022-11-18T10:56:02.545Z,45.00
2022-11-18T10:57:02.546Z,39.38
2022-11-18T10:58:02.521Z,33.75
2022-11-18T10:59:02.528Z,33.75
2022-11-18T11:00:02.568Z,33.75
2022-11-18T11:01:02.545Z,28.12
2022-11-18T11:02:08.379Z,28.12
2022-11-18T11:03:04.498Z,28.12
2022-11-18T11:04:02.495Z,28.12
2022-11-18T11:05:02.497Z,22.50
2022-11-18T11:06:02.496Z,22.50
2022-11-18T11:07:02.532Z,28.12
2022-11-18T11:08:28.982Z,28.12
2022-11-18T11:09:04.459Z,22.50
2022-11-18T11:10:02.450Z,22.50
2022-11-18T11:11:02.440Z,22.50
2022-11-18T11:12:02.449Z,22.50
2022-11-18T11:13:03.451Z,16.88
2022-11-18T11:14:02.420Z,16.88
2022-11-18T11:15:02.406Z,16.88
2022-11-18T11:16:02.405Z,16.88
2022-11-18T11:17:02.533Z,16.88
2022-11-18T11:18:02.394Z,16.88
2022-11-18T11:19:02.396Z,11.25
2022-11-18T11:20:02.416Z,11.25
2022-11-18T11:21:02.365Z,11.25
2022-11-18T11:22:02.389Z,16.88
2022-11-18T11:23:02.419Z,16.88
2022-11-18T11:24:02.357Z,16.88
2022-11-18T11:25:02.357Z,16.88
2022-11-18T11:29:04.321Z,22.50
2022-11-18T11:30:02.340Z,22.50
2022-11-18T11:31:02.332Z,22.50
2022-11-18T11:32:02.316Z,22.50
2022-11-18T11:33:02.349Z,22.50
2022-11-18T11:34:02.891Z,22.50
2022-11-18T11:35:02.290Z,22.50
2022-11-18T11:36:02.265Z,22.50
2022-11-18T11:37:02.291Z,22.50
2022-11-18T11:38:02.287Z,22.50
2022-11-18T11:39:04.827Z,22.50
2022-11-18T11:40:04.254Z,22.50
2022-11-18T11:41:02.249Z,22.50
2022-11-18T11:42:02.246Z,22.50
2022-11-18T11:43:02.260Z,22.50
2022-11-18T11:44:02.224Z,22.50
2022-11-18T11:45:03.247Z,22.50
2022-11-18T11:46:02.223Z,22.50
2022-11-18T11:47:02.193Z,22.50
2022-11-18T11:48:02.240Z,16.88
2022-11-18T11:49:02.233Z,16.88
2022-11-18T11:50:02.180Z,16.88
2022-11-18T11:51:04.688Z,16.88
2022-11-18T11:52:03.187Z,16.88
2022-11-18T11:53:02.169Z,16.88
2022-11-18T11:54:02.207Z,11.25
2022-11-18T11:55:02.894Z,11.25
2022-11-18T11:56:02.231Z,11.25
2022-11-18T11:57:02.153Z,11.25
2022-11-18T11:58:02.159Z,11.25
2022-11-18T11:59:02.179Z,11.25
2022-11-18T12:00:02.204Z,11.25
2022-11-18T12:01:02.124Z,11.25
2022-11-18T12:02:02.138Z,11.25
2022-11-18T12:03:02.192Z,11.25
2022-11-18T12:04:02.109Z,11.25
2022-11-18T12:05:02.130Z,11.25
2022-11-18T12:06:02.105Z,11.25
2022-11-18T12:07:02.192Z,11.25
2022-11-18T12:08:02.280Z,11.25
2022-11-18T12:09:02.122Z,11.25
2022-11-18T12:10:02.076Z,11.25
2022-11-18T12:11:02.053Z,11.25
2022-11-18T12:12:02.076Z,11.25
2022-11-18T12:13:02.118Z,11.25
2022-11-18T12:14:02.031Z,11.25
2022-11-18T12:15:02.229Z,11.25
2022-11-18T12:16:02.030Z,11.25
2022-11-18T12:17:02.064Z,11.25
2022-11-18T12:18:02.035Z,11.25
2022-11-18T12:19:02.035Z,11.25
2022-11-18T12:20:02.019Z,11.25
2022-11-18T12:21:02.040Z,11.25
2022-11-18T12:22:02.039Z,11.25
2022-11-18T12:23:02.015Z,16.88
2022-11-18T12:24:01.976Z,16.88
2022-11-18T12:25:02.001Z,16.88
2022-11-18T12:26:01.998Z,16.88
2022-11-18T12:27:01.982Z,16.88
2022-11-18T12:28:01.979Z,11.25
2022-11-18T12:29:02.031Z,11.25
2022-11-18T12:30:02.034Z,11.25
2022-11-18T12:31:01.950Z,11.25
2022-11-18T12:32:01.958Z,11.25
2022-11-18T12:33:01.925Z,11.25
2022-11-18T12:34:01.927Z,11.25
2022-11-18T12:35:01.976Z,11.25
2022-11-18T12:36:01.927Z,11.25
2022-11-18T12:37:01.938Z,11.25
2022-11-18T12:38:02.050Z,11.25
2022-11-18T12:39:01.931Z,11.25
2022-11-18T12:40:02.010Z,11.25
2022-11-18T12:41:01.871Z,11.25
2022-11-18T12:42:01.924Z,11.25
2022-11-18T12:43:01.915Z,11.25
2022-11-18T12:44:01.922Z,11.25
2022-11-18T12:45:01.914Z,11.25
2022-11-18T12:46:01.872Z,11.25
2022-11-18T12:47:01.912Z,11.25
2022-11-18T12:48:01.875Z,11.25
2022-11-18T12:49:01.831Z,11.25
2022-11-18T12:50:01.828Z,11.25
2022-11-18T12:51:01.905Z,11.25
2022-11-18T12:52:01.812Z,11.25
2022-11-18T12:53:01.866Z,11.25
2022-11-18T12:54:02.325Z,11.25
2022-11-18T12:55:01.810Z,11.25
2022-11-18T12:56:01.878Z,11.25
2022-11-18T12:57:01.815Z,11.25
2022-11-18T12:58:01.781Z,11.25
2022-11-18T12:59:01.801Z,11.25
2022-11-18T13:00:01.777Z,11.25
2022-11-18T13:01:01.854Z,11.25
2022-11-18T13:02:01.770Z,11.25
2022-11-18T13:03:01.776Z,11.25
2022-11-18T13:04:01.788Z,11.25
2022-11-18T13:05:01.848Z,11.25
2022-11-18T13:06:01.740Z,11.25
2022-11-18T13:07:01.777Z,11.25
2022-11-18T13:08:01.738Z,11.25
2022-11-18T13:09:01.744Z,11.25
2022-11-18T13:10:01.729Z,11.25
2022-11-18T13:11:01.767Z,11.25
2022-11-18T13:12:01.784Z,11.25
2022-11-18T13:13:01.793Z,11.25